createdAt,value
2023-03-14T00:01:21.975Z,10.70
2023-03-14T00:03:49.900Z,10.60
2023-03-14T00:06:18.594Z,10.70
2023-03-14T00:08:46.917Z,10.60
2023-03-14T00:11:17.503Z,10.60
2023-03-14T00:13:47.711Z,10.60
2023-03-14T00:16:15.777Z,10.60
2023-03-14T00:18:46.423Z,10.60
2023-03-14T00:21:45.848Z,10.60
2023-03-14T00:24:13.174Z,10.60
2023-03-14T00:26:40.472Z,10.50
2023-03-14T00:29:07.809Z,10.50
2023-03-14T00:31:37.191Z,10.50
2023-03-14T00:34:04.778Z,10.60
2023-03-14T00:36:32.288Z,10.60
2023-03-14T00:39:00.248Z,10.60
2023-03-14T00:41:27.676Z,10.60
2023-03-14T00:43:55.476Z,10.70
2023-03-14T00:46:22.646Z,10.70
2023-03-14T00:48:50.089Z,10.80
2023-03-14T00:51:17.462Z,10.80
2023-03-14T00:53:45.426Z,10.80
2023-03-14T00:56:13.879Z,10.90
2023-03-14T00:58:41.855Z,10.90
2023-03-14T01:01:19.986Z,10.90
2023-03-14T01:03:47.519Z,10.90
2023-03-14T01:06:17.011Z,10.90
2023-03-14T01:08:45.498Z,10.90
2023-03-14T01:11:16.496Z,10.90
2023-03-14T01:13:43.941Z,10.90
2023-03-14T01:16:16.812Z,10.90
2023-03-14T01:18:45.555Z,10.90
2023-03-14T01:21:16.666Z,10.90
2023-03-14T01:23:44.475Z,10.90
2023-03-14T01:26:13.773Z,10.90
2023-03-14T01:28:41.460Z,10.90
2023-03-14T01:31:11.429Z,10.80
2023-03-14T01:33:39.102Z,10.90
2023-03-14T01:36:06.961Z,10.80
2023-03-14T01:38:36.012Z,10.90
2023-03-14T01:41:03.889Z,10.90
2023-03-14T01:43:31.682Z,10.90
2023-03-14T01:46:08.149Z,10.90
2023-03-14T01:49:07.348Z,10.90
2023-03-14T01:51:40.489Z,10.90
2023-03-14T01:54:22.424Z,10.90
2023-03-14T01:57:12.351Z,10.90
2023-03-14T01:59:40.725Z,10.90
2023-03-14T02:02:11.401Z,11.00
2023-03-14T02:04:41.238Z,11.00
2023-03-14T02:07:15.117Z,11.00
2023-03-14T02:09:44.078Z,11.00
2023-03-14T02:12:13.680Z,10.90
2023-03-14T02:14:43.646Z,11.00
2023-03-14T02:17:11.257Z,11.00
2023-03-14T02:19:47.498Z,11.00
2023-03-14T02:22:16.791Z,11.00
2023-03-14T02:24:59.347Z,11.00
2023-03-14T02:27:29.471Z,11.00
2023-03-14T02:30:02.464Z,11.00
2023-03-14T02:32:44.394Z,11.00
2023-03-14T02:35:16.105Z,10.90
2023-03-14T02:37:52.657Z,10.90
2023-03-14T02:40:20.345Z,10.90
2023-03-14T02:42:47.894Z,10.90
2023-03-14T02:45:15.289Z,10.80
2023-03-14T02:47:56.313Z,10.80
2023-03-14T02:50:28.102Z,10.80
2023-03-14T02:53:01.964Z,10.70
2023-03-14T02:55:29.308Z,10.70
2023-03-14T02:57:59.281Z,10.70
2023-03-14T03:00:26.821Z,10.60
2023-03-14T03:02:56.945Z,10.60
2023-03-14T03:05:24.483Z,10.60
2023-03-14T03:07:51.761Z,10.60
2023-03-14T03:10:24.889Z,10.60
2023-03-14T03:12:52.741Z,10.60
2023-03-14T03:15:26.032Z,10.50
2023-03-14T03:17:53.292Z,10.60
2023-03-14T03:20:36.047Z,10.60
2023-03-14T03:23:03.642Z,10.60
2023-03-14T03:25:37.424Z,10.60
2023-03-14T03:28:09.948Z,10.60
2023-03-14T03:30:42.101Z,10.60
2023-03-14T03:33:11.427Z,10.60
2023-03-14T03:35:56.056Z,10.60
2023-03-14T03:38:29.989Z,10.50
2023-03-14T03:41:03.461Z,10.60
2023-03-14T03:43:33.888Z,10.60
2023-03-14T03:46:09.860Z,10.60
2023-03-14T03:48:39.980Z,10.60
2023-03-14T03:51:07.768Z,10.60
2023-03-14T03:53:35.317Z,10.60
2023-03-14T03:56:02.951Z,10.60
2023-03-14T03:58:30.838Z,10.60
2023-03-14T04:00:58.274Z,10.60
2023-03-14T04:03:25.867Z,10.50
2023-03-14T04:06:19.785Z,10.60
2023-03-14T04:11:31.557Z,10.50
2023-03-14T04:14:06.236Z,10.50
2023-03-14T04:16:35.317Z,10.60
2023-03-14T04:19:42.083Z,10.50
2023-03-14T04:22:16.462Z,10.50
2023-03-14T04:24:43.824Z,10.50
2023-03-14T04:27:12.863Z,10.50
2023-03-14T04:29:40.368Z,10.60
2023-03-14T04:32:11.087Z,10.60
2023-03-14T04:34:44.425Z,10.50
2023-03-14T04:37:12.284Z,10.50
2023-03-14T04:39:45.516Z,10.50
2023-03-14T04:42:22.107Z,10.50
2023-03-14T04:44:50.900Z,10.50
2023-03-14T04:47:18.508Z,10.50
2023-03-14T04:49:51.608Z,10.50
2023-03-14T04:52:21.501Z,10.50
2023-03-14T04:54:52.139Z,10.50
2023-03-14T04:57:22.878Z,10.50
2023-03-14T04:59:50.730Z,10.50
2023-03-14T05:02:21.044Z,10.60
2023-03-14T05:04:50.651Z,10.50
2023-03-14T05:07:21.903Z,10.60
2023-03-14T05:09:55.032Z,10.60
2023-03-14T05:12:30.412Z,10.60
2023-03-14T05:15:26.125Z,10.60
2023-03-14T05:18:40.632Z,10.60
2023-03-14T05:21:08.250Z,10.60
2023-03-14T05:23:46.731Z,10.60
2023-03-14T05:29:12.427Z,10.60
2023-03-14T05:31:39.832Z,10.60
2023-03-14T05:34:11.230Z,10.60
2023-03-14T05:36:41.168Z,10.60
2023-03-14T05:39:13.985Z,10.60
2023-03-14T05:41:41.485Z,10.70
2023-03-14T05:44:09.471Z,10.60
2023-03-14T05:46:40.316Z,10.70
2023-03-14T05:49:07.930Z,10.70
2023-03-14T05:51:37.813Z,10.70
2023-03-14T05:54:05.192Z,10.70
2023-03-14T05:56:32.489Z,10.70
2023-03-14T05:59:01.434Z,10.60
2023-03-14T06:01:31.940Z,10.60
2023-03-14T06:03:59.531Z,10.60
2023-03-14T06:06:30.461Z,10.60
2023-03-14T06:08:57.776Z,10.60
2023-03-14T06:11:32.438Z,10.60
2023-03-14T06:13:59.853Z,10.60
2023-03-14T06:16:33.052Z,10.60
2023-03-14T06:19:03.465Z,10.60
2023-03-14T06:21:33.877Z,10.60
2023-03-14T06:24:01.664Z,10.60
2023-03-14T06:26:31.634Z,10.60
2023-03-14T06:29:13.053Z,10.60
2023-03-14T06:31:41.513Z,10.60
2023-03-14T06:34:12.201Z,10.60
2023-03-14T06:36:42.479Z,10.60
2023-03-14T06:39:11.677Z,10.60
2023-03-14T06:46:42.261Z,10.60
2023-03-14T06:49:56.428Z,10.60
2023-03-14T06:55:33.824Z,10.50
2023-03-14T07:02:47.618Z,10.60
2023-03-14T07:05:05.909Z,10.50
2023-03-14T07:16:29.781Z,10.60
2023-03-14T07:18:09.658Z,10.50
2023-03-14T07:20:59.815Z,10.60
2023-03-14T07:26:29.409Z,10.60
2023-03-14T07:28:56.896Z,10.60
2023-03-14T07:31:24.449Z,10.60
2023-03-14T07:33:51.848Z,10.70
2023-03-14T07:36:19.280Z,10.70
2023-03-14T07:38:46.655Z,10.70
2023-03-14T07:41:14.144Z,10.70
2023-03-14T07:43:41.870Z,10.70
2023-03-14T07:46:09.802Z,10.70
2023-03-14T07:48:37.024Z,10.70
2023-03-14T07:51:04.690Z,10.70
2023-03-14T07:53:31.961Z,10.60
2023-03-14T07:55:59.293Z,10.60
2023-03-14T07:58:26.682Z,10.60
2023-03-14T08:00:57.939Z,10.70
2023-03-14T08:03:25.455Z,10.70
2023-03-14T08:05:53.381Z,10.70
2023-03-14T08:08:20.761Z,10.60
2023-03-14T08:10:48.432Z,10.70
2023-03-14T08:13:15.951Z,10.70
2023-03-14T08:15:43.318Z,10.70
2023-03-14T08:18:10.588Z,10.70
2023-03-14T08:20:38.925Z,10.70
2023-03-14T08:23:06.786Z,10.70
2023-03-14T08:25:34.123Z,10.80
2023-03-14T08:28:01.651Z,10.80
2023-03-14T08:30:29.345Z,10.90
2023-03-14T08:32:59.219Z,10.90
2023-03-14T08:35:28.507Z,10.90
2023-03-14T08:37:56.090Z,11.00
2023-03-14T08:40:23.444Z,11.00
2023-03-14T08:42:50.759Z,11.10
2023-03-14T08:45:26.412Z,11.10
2023-03-14T08:47:53.796Z,11.20
2023-03-14T08:50:21.235Z,11.30
2023-03-14T08:52:48.498Z,11.40
2023-03-14T08:55:15.857Z,11.40
2023-03-14T08:57:43.142Z,11.50
2023-03-14T09:00:13.793Z,11.60
2023-03-14T09:02:40.960Z,11.70
2023-03-14T09:05:08.959Z,11.80
2023-03-14T09:07:36.361Z,12.00
2023-03-14T09:10:04.142Z,12.10
2023-03-14T09:12:32.013Z,12.30
2023-03-14T09:14:59.367Z,12.40
2023-03-14T09:17:27.226Z,12.50
2023-03-14T09:19:54.280Z,12.60
2023-03-14T09:22:21.949Z,12.70
2023-03-14T09:24:49.380Z,12.80
2023-03-14T09:27:16.579Z,12.90
2023-03-14T09:29:44.109Z,13.00
2023-03-14T09:32:11.456Z,13.10
2023-03-14T09:34:38.683Z,13.20
2023-03-14T09:37:06.058Z,13.20
2023-03-14T09:39:33.640Z,13.20
2023-03-14T09:42:07.464Z,13.10
2023-03-14T09:44:40.714Z,13.20
2023-03-14T09:47:13.134Z,13.20
2023-03-14T09:49:44.149Z,13.20
2023-03-14T09:52:47.490Z,13.20
2023-03-14T09:55:23.060Z,13.10
2023-03-14T09:57:55.883Z,13.10
2023-03-14T10:00:27.255Z,13.10
2023-03-14T10:03:14.491Z,13.20
2023-03-14T10:05:43.319Z,13.20
2023-03-14T10:08:14.519Z,13.30
2023-03-14T10:10:42.091Z,13.30
2023-03-14T10:13:29.106Z,13.30
2023-03-14T10:16:04.213Z,13.40
2023-03-14T10:18:35.118Z,13.30
2023-03-14T10:21:08.887Z,13.30
2023-03-14T10:23:37.044Z,13.30
2023-03-14T10:26:09.357Z,13.30
2023-03-14T10:28:45.238Z,13.30
2023-03-14T10:31:14.034Z,13.30
2023-03-14T10:33:41.729Z,13.30
2023-03-14T10:36:23.409Z,13.30
2023-03-14T10:38:55.463Z,13.40
2023-03-14T10:41:28.140Z,13.30
2023-03-14T10:44:00.519Z,13.30
2023-03-14T10:46:31.325Z,13.20
2023-03-14T10:48:58.793Z,13.10
2023-03-14T10:51:28.674Z,13.10
2023-03-14T10:54:13.603Z,13.00
2023-03-14T10:56:40.962Z,13.00
2023-03-14T10:59:17.603Z,12.80
2023-03-14T11:02:20.890Z,12.60
2023-03-14T11:04:59.188Z,12.50
2023-03-14T11:07:49.157Z,12.30
2023-03-14T11:10:34.031Z,12.10
2023-03-14T11:13:27.890Z,12.00
2023-03-14T11:16:01.004Z,11.80
2023-03-14T11:19:02.011Z,11.70
2023-03-14T11:21:44.085Z,11.50
2023-03-14T11:24:30.124Z,11.40
2023-03-14T11:27:28.417Z,11.20
2023-03-14T11:29:59.998Z,11.00
2023-03-14T11:32:52.306Z,10.90
2023-03-14T11:35:27.687Z,10.80
2023-03-14T11:38:04.732Z,10.60
2023-03-14T11:40:35.025Z,10.40
2023-03-14T11:43:07.758Z,10.10
2023-03-14T11:45:39.061Z,9.70
2023-03-14T11:48:26.512Z,9.30
2023-03-14T11:50:56.452Z,9.10
2023-03-14T11:53:50.752Z,8.80
2023-03-14T11:56:45.679Z,8.50
2023-03-14T11:59:30.635Z,7.90
2023-03-14T12:02:26.177Z,7.40
2023-03-14T12:05:16.249Z,7.00
2023-03-14T12:08:10.645Z,6.60
2023-03-14T12:11:01.700Z,6.40
2023-03-14T12:13:38.280Z,6.20
2023-03-14T12:16:08.813Z,6.00
2023-03-14T12:18:40.074Z,6.00
2023-03-14T12:21:10.627Z,5.90
2023-03-14T12:23:51.399Z,5.80
2023-03-14T12:26:21.840Z,5.80
2023-03-14T12:29:13.584Z,5.80
2023-03-14T12:31:45.327Z,5.80
2023-03-14T12:34:12.997Z,5.80
2023-03-14T12:36:55.670Z,5.80
2023-03-14T12:39:45.407Z,5.70
2023-03-14T12:42:19.799Z,5.70
2023-03-14T12:44:49.890Z,5.70
2023-03-14T12:47:20.157Z,5.70
2023-03-14T12:49:53.716Z,5.70
2023-03-14T12:52:29.821Z,5.70
2023-03-14T12:55:21.164Z,5.70
2023-03-14T12:58:15.059Z,5.70
2023-03-14T13:00:43.443Z,5.70
2023-03-14T13:03:16.571Z,5.60
2023-03-14T13:06:05.692Z,5.60
2023-03-14T13:08:42.416Z,5.60
2023-03-14T13:11:19.968Z,5.60
2023-03-14T13:13:50.768Z,5.60
2023-03-14T13:16:21.159Z,5.70
2023-03-14T13:18:51.276Z,5.70
2023-03-14T13:21:28.990Z,5.70
2023-03-14T13:23:58.110Z,5.70
2023-03-14T13:26:36.779Z,5.70
2023-03-14T13:29:25.059Z,5.70
2023-03-14T13:31:55.769Z,5.70
2023-03-14T13:34:25.908Z,5.70
2023-03-14T13:36:57.388Z,5.70
2023-03-14T13:39:27.094Z,5.70
2023-03-14T13:41:56.460Z,5.70
2023-03-14T13:44:32.173Z,5.70
2023-03-14T13:47:04.658Z,5.80
2023-03-14T13:49:36.823Z,5.80
2023-03-14T13:52:05.129Z,5.90
2023-03-14T13:54:33.027Z,6.00
2023-03-14T13:57:06.143Z,6.10
2023-03-14T13:59:36.112Z,6.10
2023-03-14T14:02:18.699Z,6.20
2023-03-14T14:04:47.801Z,6.20
2023-03-14T14:07:21.247Z,6.20
2023-03-14T14:09:51.839Z,6.20
2023-03-14T14:12:43.966Z,6.20
2023-03-14T14:15:17.727Z,6.20
2023-03-14T14:17:48.304Z,6.20
2023-03-14T14:20:36.044Z,6.30
2023-03-14T14:23:10.904Z,6.40
2023-03-14T14:25:38.552Z,6.40
2023-03-14T14:28:28.293Z,6.50
2023-03-14T14:31:26.574Z,6.50
2023-03-14T14:34:05.194Z,6.50
2023-03-14T14:36:45.990Z,6.50
2023-03-14T14:39:21.324Z,6.60
2023-03-14T14:41:52.622Z,6.60
2023-03-14T14:44:33.927Z,6.60
2023-03-14T14:47:04.547Z,6.60
2023-03-14T14:49:33.795Z,6.60
2023-03-14T14:52:10.921Z,6.60
2023-03-14T14:54:49.887Z,6.70
2023-03-14T14:57:32.598Z,6.60
2023-03-14T15:00:08.369Z,6.60
2023-03-14T15:02:45.564Z,6.60
2023-03-14T15:05:17.881Z,6.60
2023-03-14T15:07:45.494Z,6.50
2023-03-14T15:10:15.635Z,6.50
2023-03-14T15:12:43.118Z,6.50
2023-03-14T15:15:11.758Z,6.50
2023-03-14T15:17:39.860Z,6.50
2023-03-14T15:20:14.399Z,6.50
2023-03-14T15:22:42.577Z,6.50
2023-03-14T15:25:31.560Z,6.50
2023-03-14T15:27:59.056Z,6.40
2023-03-14T15:30:26.723Z,6.40
2023-03-14T15:32:54.094Z,6.40
2023-03-14T15:35:21.419Z,6.40
2023-03-14T15:37:48.842Z,6.40
2023-03-14T15:40:16.794Z,6.40
2023-03-14T15:42:44.162Z,6.40
2023-03-14T15:45:11.688Z,6.40
2023-03-14T15:47:42.289Z,6.30
2023-03-14T15:50:11.780Z,6.30
2023-03-14T15:52:39.690Z,6.30
2023-03-14T15:55:08.524Z,6.20
2023-03-14T15:57:38.909Z,6.30
2023-03-14T16:00:09.768Z,6.30
2023-03-14T16:02:41.522Z,6.20
2023-03-14T16:05:12.609Z,6.20
2023-03-14T16:07:40.772Z,6.20
2023-03-14T16:10:11.957Z,6.20
2023-03-14T16:12:39.391Z,6.20
2023-03-14T16:15:07.598Z,6.20
2023-03-14T16:17:35.548Z,6.20
2023-03-14T16:20:03.213Z,6.10
2023-03-14T16:22:34.602Z,6.10
2023-03-14T16:25:08.707Z,6.10
2023-03-14T16:27:36.029Z,6.10
2023-03-14T16:30:03.277Z,6.10
2023-03-14T16:32:30.682Z,6.10
2023-03-14T16:34:58.138Z,6.10
2023-03-14T16:37:27.539Z,6.10
2023-03-14T16:40:11.768Z,6.10
2023-03-14T16:42:54.754Z,6.10
2023-03-14T16:45:27.308Z,6.10
2023-03-14T16:47:54.611Z,6.10
2023-03-14T16:50:21.972Z,6.10
2023-03-14T16:52:50.137Z,6.10
2023-03-14T16:55:17.526Z,6.10
2023-03-14T16:57:44.804Z,6.00
2023-03-14T17:00:12.980Z,6.00
2023-03-14T17:02:40.364Z,6.00
2023-03-14T17:05:08.388Z,6.00
2023-03-14T17:07:35.748Z,6.00
2023-03-14T17:10:03.335Z,5.90
2023-03-14T17:12:30.534Z,5.90
2023-03-14T17:14:59.852Z,5.90
2023-03-14T17:17:30.340Z,5.90
2023-03-14T17:19:57.537Z,5.90
2023-03-14T17:22:28.663Z,5.80
2023-03-14T17:24:58.051Z,5.80
2023-03-14T17:27:25.407Z,5.80
2023-03-14T17:29:52.851Z,5.80
2023-03-14T17:32:20.372Z,5.80
2023-03-14T17:34:47.783Z,5.70
2023-03-14T17:37:15.087Z,5.70
2023-03-14T17:39:42.309Z,5.70
2023-03-14T17:42:09.690Z,5.70
2023-03-14T17:44:36.940Z,5.70
2023-03-14T17:47:04.246Z,5.60
2023-03-14T17:49:31.637Z,5.60
2023-03-14T17:51:58.959Z,5.50
2023-03-14T17:54:26.361Z,5.50
2023-03-14T17:56:53.515Z,5.50
2023-03-14T17:59:20.968Z,5.40
2023-03-14T18:01:48.500Z,5.40
2023-03-14T18:04:17.507Z,5.40
2023-03-14T18:06:45.088Z,5.40
2023-03-14T18:09:12.497Z,5.30
2023-03-14T18:11:40.177Z,5.30
2023-03-14T18:14:11.760Z,5.30
2023-03-14T18:16:39.071Z,5.30
2023-03-14T18:19:06.250Z,5.20
2023-03-14T18:21:34.601Z,5.20
2023-03-14T18:24:03.667Z,5.10
2023-03-14T18:26:31.067Z,5.10
2023-03-14T18:28:58.257Z,5.10
2023-03-14T18:31:26.221Z,5.10
2023-03-14T18:33:55.933Z,5.00
2023-03-14T18:36:23.197Z,5.00
2023-03-14T18:38:56.745Z,5.00
2023-03-14T18:41:25.162Z,5.00
2023-03-14T18:43:53.904Z,5.00
2023-03-14T18:46:22.672Z,5.00
2023-03-14T18:48:56.654Z,4.90
2023-03-14T18:51:29.176Z,4.80
2023-03-14T18:54:08.444Z,4.80
2023-03-14T18:56:36.408Z,4.80
2023-03-14T18:59:03.887Z,4.80
2023-03-14T19:01:31.662Z,4.80
2023-03-14T19:04:03.251Z,4.70
2023-03-14T19:06:34.328Z,4.70
2023-03-14T19:09:06.389Z,4.70
2023-03-14T19:11:33.704Z,4.70
2023-03-14T19:14:01.082Z,4.60
2023-03-14T19:16:29.027Z,4.60
2023-03-14T19:18:58.357Z,4.60
2023-03-14T19:21:35.746Z,4.60
2023-03-14T19:24:05.655Z,4.50
2023-03-14T19:26:35.679Z,4.50
2023-03-14T19:29:03.268Z,4.50
2023-03-14T19:31:31.765Z,4.50
2023-03-14T19:34:00.288Z,4.50
2023-03-14T19:36:30.241Z,4.50
2023-03-14T19:38:57.879Z,4.50
2023-03-14T19:41:26.176Z,4.40
2023-03-14T19:43:53.787Z,4.40
2023-03-14T19:46:22.198Z,4.40
2023-03-14T19:48:54.448Z,4.40
2023-03-14T19:51:22.825Z,4.30
2023-03-14T19:53:51.076Z,4.30
2023-03-14T19:56:20.076Z,4.30
2023-03-14T19:58:47.440Z,4.30
2023-03-14T20:01:14.958Z,4.20
2023-03-14T20:03:42.384Z,4.20
2023-03-14T20:06:14.910Z,4.20
2023-03-14T20:08:43.907Z,4.10
2023-03-14T20:11:14.335Z,4.10
2023-03-14T20:13:41.684Z,4.10
2023-03-14T20:16:12.277Z,4.10
2023-03-14T20:18:40.669Z,4.10
2023-03-14T20:21:09.671Z,4.00
2023-03-14T20:23:37.259Z,4.00
2023-03-14T20:26:05.105Z,4.00
2023-03-14T20:28:32.780Z,3.90
2023-03-14T20:31:00.301Z,3.90
2023-03-14T20:33:27.940Z,3.90
2023-03-14T20:35:57.697Z,3.80
2023-03-14T20:38:26.913Z,3.80
2023-03-14T20:40:59.179Z,3.80
2023-03-14T20:43:27.919Z,3.80
2023-03-14T20:45:57.295Z,3.80
2023-03-14T20:49:47.703Z,3.70
2023-03-14T20:52:17.835Z,3.70
2023-03-14T20:54:46.109Z,3.70
2023-03-14T20:57:15.610Z,3.60
2023-03-14T20:59:42.969Z,3.60
2023-03-14T21:04:57.994Z,3.60
2023-03-14T21:07:25.305Z,3.60
2023-03-14T21:09:55.719Z,3.60
2023-03-14T21:12:22.941Z,3.50
2023-03-14T21:14:50.301Z,3.50
2023-03-14T21:17:17.481Z,3.50
2023-03-14T21:19:45.806Z,3.50
2023-03-14T21:22:18.655Z,3.50
2023-03-14T21:24:49.307Z,3.50
2023-03-14T21:27:16.495Z,3.40
2023-03-14T21:29:43.565Z,3.40
2023-03-14T21:32:11.244Z,3.40
2023-03-14T21:34:38.517Z,3.30
2023-03-14T21:37:06.206Z,3.30
2023-03-14T21:39:33.371Z,3.30
2023-03-14T21:42:00.506Z,3.30
2023-03-14T21:44:27.756Z,3.30
2023-03-14T21:46:55.031Z,3.20
2023-03-14T21:49:22.344Z,3.20
2023-03-14T21:51:49.522Z,3.20
2023-03-14T21:54:17.568Z,3.20
2023-03-14T21:56:44.919Z,3.10
2023-03-14T21:59:12.762Z,3.10
2023-03-14T22:01:40.231Z,3.10
2023-03-14T22:04:07.296Z,3.10
2023-03-14T22:06:35.261Z,3.10
2023-03-14T22:09:03.553Z,3.10
2023-03-14T22:11:30.954Z,3.10
2023-03-14T22:13:58.193Z,3.10
2023-03-14T22:16:27.876Z,3.10
2023-03-14T22:18:55.150Z,3.10
2023-03-14T22:21:22.441Z,3.10
2023-03-14T22:23:50.234Z,3.10
2023-03-14T22:26:18.110Z,3.00
2023-03-14T22:28:49.560Z,3.00
2023-03-14T22:31:16.596Z,3.00
2023-03-14T22:33:43.882Z,3.00
2023-03-14T22:36:11.562Z,3.00
2023-03-14T22:38:38.930Z,3.00
2023-03-14T22:41:06.647Z,3.00
2023-03-14T22:43:33.859Z,3.00
2023-03-14T22:46:03.473Z,2.90
2023-03-14T22:48:31.536Z,2.90
2023-03-14T22:50:59.929Z,2.90
2023-03-14T22:53:30.163Z,2.90
2023-03-14T22:56:05.419Z,2.90
2023-03-14T22:58:33.353Z,2.80
2023-03-14T23:01:00.733Z,2.90
2023-03-14T23:03:28.481Z,2.80
2023-03-14T23:05:56.488Z,2.80
2023-03-14T23:08:24.410Z,2.80
2023-03-14T23:10:53.594Z,2.70
2023-03-14T23:13:21.181Z,2.80
2023-03-14T23:15:48.585Z,2.70
2023-03-14T23:18:18.545Z,2.70
2023-03-14T23:20:48.239Z,2.70
2023-03-14T23:23:15.714Z,2.70
2023-03-14T23:25:52.850Z,2.70
2023-03-14T23:28:23.464Z,2.70
2023-03-14T23:30:58.131Z,2.70
2023-03-14T23:33:27.661Z,2.60
2023-03-14T23:35:55.675Z,2.70
2023-03-14T23:38:26.205Z,2.60
2023-03-14T23:40:54.484Z,2.60
2023-03-14T23:43:22.008Z,2.60
2023-03-14T23:45:54.874Z,2.60
2023-03-14T23:48:26.867Z,2.60
2023-03-14T23:50:58.584Z,2.60
2023-03-14T23:53:28.128Z,2.60
2023-03-14T23:55:55.954Z,2.60
2023-03-14T23:58:23.678Z,2.50
